createdAt,value
2023-05-10T00:00:52.653Z,18.80
2023-05-10T00:03:21.375Z,17.90
2023-05-10T00:05:50.092Z,22.80
2023-05-10T00:08:20.066Z,18.57
2023-05-10T00:10:48.634Z,19.50
2023-05-10T00:13:17.465Z,21.67
2023-05-10T00:15:46.152Z,21.07
2023-05-10T00:18:14.687Z,24.50
2023-05-10T00:20:43.247Z,28.17
2023-05-10T00:23:11.817Z,22.60
2023-05-10T00:25:41.770Z,26.07
2023-05-10T00:28:10.382Z,30.87
2023-05-10T00:30:38.990Z,26.27
2023-05-10T00:33:07.917Z,24.90
2023-05-10T00:35:36.503Z,28.43
2023-05-10T00:38:04.963Z,28.20
2023-05-10T00:40:33.424Z,27.43
2023-05-10T00:43:03.405Z,24.13
2023-05-10T00:45:33.394Z,26.83
2023-05-10T00:48:05.026Z,29.30
2023-05-10T00:50:34.076Z,26.10
2023-05-10T00:53:03.355Z,27.30
2023-05-10T00:55:32.647Z,29.93
2023-05-10T00:58:02.639Z,31.97
2023-05-10T01:00:31.458Z,34.20
2023-05-10T01:03:00.912Z,29.13
2023-05-10T01:05:29.700Z,26.40
2023-05-10T01:07:58.972Z,26.10
2023-05-10T01:10:27.879Z,29.67
2023-05-10T01:12:57.205Z,24.00
2023-05-10T01:15:27.421Z,21.50
2023-05-10T01:17:56.943Z,18.30
2023-05-10T01:20:26.799Z,15.37
2023-05-10T01:23:27.247Z,16.27
2023-05-10T01:26:23.004Z,17.70
2023-05-10T01:29:25.376Z,14.90
2023-05-10T01:32:27.661Z,14.37
2023-05-10T01:35:02.455Z,16.07
2023-05-10T01:37:46.086Z,16.80
2023-05-10T01:40:23.866Z,15.53
2023-05-10T01:43:01.710Z,12.80
2023-05-10T01:45:34.533Z,12.47
2023-05-10T01:48:09.276Z,9.63
2023-05-10T01:50:40.870Z,10.07
2023-05-10T01:53:11.837Z,12.10
2023-05-10T01:55:45.899Z,10.87
2023-05-10T01:58:17.677Z,10.77
2023-05-10T02:00:49.123Z,10.83
2023-05-10T02:03:20.894Z,10.27
2023-05-10T02:05:51.820Z,10.20
2023-05-10T02:08:21.321Z,9.20
2023-05-10T02:10:51.516Z,10.87
2023-05-10T02:13:22.009Z,9.90
2023-05-10T02:15:52.274Z,9.37
2023-05-10T02:18:23.808Z,10.53
2023-05-10T02:20:54.718Z,8.53
2023-05-10T02:23:24.179Z,9.60
2023-05-10T02:25:54.744Z,10.70
2023-05-10T02:28:24.607Z,12.33
2023-05-10T02:30:54.683Z,8.83
2023-05-10T02:33:25.487Z,8.00
2023-05-10T02:35:55.615Z,7.50
2023-05-10T02:38:26.518Z,8.43
2023-05-10T02:40:56.147Z,8.30
2023-05-10T02:43:26.929Z,12.13
2023-05-10T02:45:55.968Z,14.30
2023-05-10T02:48:25.977Z,15.63
2023-05-10T02:50:57.257Z,16.40
2023-05-10T02:53:35.712Z,23.33
2023-05-10T02:56:10.987Z,26.20
2023-05-10T02:58:39.572Z,31.80
2023-05-10T03:01:09.009Z,38.03
2023-05-10T03:03:39.133Z,24.87
2023-05-10T03:06:08.559Z,22.83
2023-05-10T03:08:37.243Z,24.67
2023-05-10T03:11:30.600Z,22.87
2023-05-10T03:14:10.589Z,28.83
2023-05-10T03:16:48.108Z,24.83
2023-05-10T03:19:24.832Z,28.23
2023-05-10T03:21:55.226Z,32.10
2023-05-10T03:24:25.673Z,35.73
2023-05-10T03:26:58.019Z,46.33
2023-05-10T03:29:28.728Z,50.40
2023-05-10T03:31:57.620Z,44.67
2023-05-10T03:34:28.031Z,44.13
2023-05-10T03:36:56.534Z,46.77
2023-05-10T03:39:25.917Z,48.77
2023-05-10T03:41:54.524Z,59.80
2023-05-10T03:44:23.017Z,58.40
2023-05-10T03:46:52.038Z,72.23
2023-05-10T03:49:20.591Z,59.67
2023-05-10T03:51:50.825Z,63.27
2023-05-10T03:54:19.539Z,66.20
2023-05-10T03:56:49.074Z,69.23
2023-05-10T03:59:17.632Z,73.17
2023-05-10T04:01:46.469Z,67.57
2023-05-10T04:04:15.073Z,62.80
2023-05-10T04:06:43.674Z,62.67
2023-05-10T04:09:13.627Z,65.87
2023-05-10T04:11:42.302Z,77.40
2023-05-10T04:14:10.841Z,76.57
2023-05-10T04:16:39.675Z,75.43
2023-05-10T04:19:08.593Z,65.93
2023-05-10T04:21:37.137Z,88.77
2023-05-10T04:24:06.398Z,104.07
2023-05-10T04:26:36.399Z,91.00
2023-05-10T04:29:04.904Z,113.80
2023-05-10T04:31:35.381Z,98.30
2023-05-10T04:34:04.348Z,95.97
2023-05-10T04:36:33.553Z,103.47
2023-05-10T04:39:02.101Z,100.07
2023-05-10T04:41:30.939Z,95.47
2023-05-10T04:44:00.850Z,97.13
2023-05-10T04:46:29.496Z,105.20
2023-05-10T04:48:58.080Z,103.33
2023-05-10T04:51:26.988Z,123.67
2023-05-10T04:54:05.328Z,113.03
2023-05-10T04:56:34.928Z,126.53
2023-05-10T04:59:05.186Z,148.73
2023-05-10T05:01:33.767Z,149.93
2023-05-10T05:04:02.581Z,136.50
2023-05-10T05:06:31.161Z,135.33
2023-05-10T05:09:00.189Z,138.37
2023-05-10T05:11:28.669Z,142.13
2023-05-10T05:13:57.207Z,140.60
2023-05-10T05:16:27.877Z,128.40
2023-05-10T05:18:57.048Z,128.03
2023-05-10T05:21:27.953Z,122.77
2023-05-10T05:23:56.559Z,133.20
2023-05-10T05:26:25.109Z,159.80
2023-05-10T05:28:55.703Z,155.83
2023-05-10T05:31:24.337Z,118.37
2023-05-10T05:33:54.296Z,125.23
2023-05-10T05:36:22.818Z,126.60
2023-05-10T05:38:51.311Z,129.37
2023-05-10T05:41:19.823Z,113.37
2023-05-10T05:43:48.865Z,116.40
2023-05-10T05:46:17.436Z,133.13
2023-05-10T05:48:46.269Z,114.23
2023-05-10T05:51:16.331Z,139.07
2023-05-10T05:53:44.848Z,151.30
2023-05-10T05:56:13.512Z,121.47
2023-05-10T05:58:42.630Z,147.20
2023-05-10T06:01:11.214Z,142.37
2023-05-10T06:03:39.938Z,137.23
2023-05-10T06:06:08.768Z,117.43
2023-05-10T06:08:39.116Z,117.03
2023-05-10T06:11:07.654Z,109.33
2023-05-10T06:13:36.436Z,119.43
2023-05-10T06:16:05.760Z,136.23
2023-05-10T06:18:34.828Z,139.33
2023-05-10T06:21:03.430Z,118.80
2023-05-10T06:23:32.004Z,133.23
2023-05-10T06:26:02.048Z,127.87
2023-05-10T06:28:32.429Z,123.87
2023-05-10T06:31:00.989Z,121.80
2023-05-10T06:33:29.578Z,132.37
2023-05-10T06:35:58.478Z,124.37
2023-05-10T06:38:27.261Z,139.83
2023-05-10T06:40:55.828Z,122.23
2023-05-10T06:43:26.024Z,110.93
2023-05-10T06:45:54.559Z,102.07
2023-05-10T06:48:23.193Z,117.27
2023-05-10T06:50:52.110Z,114.77
2023-05-10T06:53:20.785Z,89.73
2023-05-10T06:55:49.310Z,100.07
2023-05-10T06:58:17.874Z,87.30
2023-05-10T07:00:48.397Z,86.33
2023-05-10T07:03:17.097Z,81.80
2023-05-10T07:05:45.708Z,74.50
2023-05-10T07:08:14.598Z,74.37
2023-05-10T07:10:43.121Z,69.03
2023-05-10T07:13:12.287Z,60.23
2023-05-10T07:15:41.020Z,64.50
2023-05-10T07:18:11.131Z,64.73
2023-05-10T07:20:39.824Z,58.30
2023-05-10T07:23:08.378Z,58.33
2023-05-10T07:25:36.971Z,49.20
2023-05-10T07:28:06.651Z,46.90
2023-05-10T07:30:35.209Z,47.20
2023-05-10T07:33:03.866Z,40.93
2023-05-10T07:35:35.048Z,43.50
2023-05-10T07:38:03.971Z,40.23
2023-05-10T07:40:32.737Z,41.20
2023-05-10T07:43:02.844Z,43.37
2023-05-10T07:45:31.410Z,38.60
2023-05-10T07:48:00.067Z,39.70
2023-05-10T07:50:28.682Z,40.17
2023-05-10T07:52:58.812Z,32.87
2023-05-10T07:55:27.819Z,36.80
2023-05-10T07:57:56.464Z,35.97
2023-05-10T08:00:25.155Z,33.57
2023-05-10T08:02:54.110Z,39.17
2023-05-10T08:05:22.862Z,34.77
2023-05-10T08:07:51.502Z,33.20
2023-05-10T08:10:21.668Z,34.80
2023-05-10T08:12:50.704Z,32.93
2023-05-10T08:15:19.699Z,29.93
2023-05-10T08:17:48.473Z,32.53
2023-05-10T08:20:17.977Z,32.13
2023-05-10T08:22:47.294Z,32.10
2023-05-10T08:25:17.142Z,33.67
2023-05-10T08:27:47.422Z,35.33
2023-05-10T08:30:16.409Z,34.10
2023-05-10T08:32:45.044Z,31.00
2023-05-10T08:35:13.749Z,34.73
2023-05-10T08:37:42.412Z,35.67
2023-05-10T08:40:13.891Z,31.97
2023-05-10T08:42:45.805Z,34.67
2023-05-10T08:45:18.122Z,32.23
2023-05-10T08:47:47.085Z,29.67
2023-05-10T08:50:17.267Z,28.47
2023-05-10T08:52:49.050Z,33.30
2023-05-10T08:55:18.799Z,30.43
2023-05-10T08:57:47.854Z,33.23
2023-05-10T09:00:19.325Z,32.00
2023-05-10T09:02:48.175Z,31.20
2023-05-10T09:05:18.975Z,31.27
2023-05-10T09:07:48.420Z,29.40
2023-05-10T09:10:17.515Z,30.00
2023-05-10T09:12:47.561Z,28.40
2023-05-10T09:15:20.442Z,27.20
2023-05-10T09:17:51.591Z,27.67
2023-05-10T09:20:20.327Z,28.90
2023-05-10T09:22:48.949Z,25.70
2023-05-10T09:25:18.902Z,28.37
2023-05-10T09:27:49.202Z,24.53
2023-05-10T09:30:25.433Z,28.27
2023-05-10T09:32:54.777Z,23.73
2023-05-10T09:35:27.211Z,25.83
2023-05-10T09:38:00.518Z,24.23
2023-05-10T09:40:31.140Z,23.20
2023-05-10T09:43:01.044Z,25.63
2023-05-10T09:45:32.895Z,20.77
2023-05-10T09:48:03.000Z,23.57
2023-05-10T09:50:32.165Z,23.33
2023-05-10T09:53:01.813Z,25.87
2023-05-10T09:55:45.443Z,23.50
2023-05-10T09:58:15.372Z,24.50
2023-05-10T10:00:49.027Z,21.87
2023-05-10T10:03:18.863Z,24.80
2023-05-10T10:05:48.803Z,27.73
2023-05-10T10:08:18.087Z,26.90
2023-05-10T10:10:47.621Z,28.80
2023-05-10T10:13:18.402Z,24.97
2023-05-10T10:15:52.298Z,27.80
2023-05-10T10:18:24.946Z,28.00
2023-05-10T10:20:53.879Z,30.07
2023-05-10T10:23:22.580Z,25.53
2023-05-10T10:25:53.075Z,23.67
2023-05-10T10:28:33.581Z,24.50
2023-05-10T10:31:18.437Z,26.23
2023-05-10T10:34:03.199Z,29.67
2023-05-10T10:36:32.512Z,27.07
2023-05-10T10:39:02.702Z,26.20
2023-05-10T10:41:34.311Z,27.43
2023-05-10T14:35:43.587Z,14.93
2023-05-10T14:38:15.380Z,13.20
2023-05-10T14:40:45.788Z,14.73
2023-05-10T14:43:21.768Z,15.53
2023-05-10T14:45:50.573Z,14.87
2023-05-10T14:48:22.389Z,15.80
2023-05-10T14:50:55.470Z,13.97
2023-05-10T14:54:19.310Z,11.03
2023-05-10T14:56:50.051Z,12.02
2023-05-10T14:59:22.884Z,10.45
2023-05-10T15:01:51.918Z,11.77
2023-05-10T15:04:27.775Z,10.50
2023-05-10T15:07:00.744Z,10.30
2023-05-10T15:09:30.320Z,10.53
2023-05-10T15:11:59.383Z,10.43
2023-05-10T15:14:30.346Z,10.15
2023-05-10T15:17:06.122Z,11.20
2023-05-10T15:19:35.693Z,8.38
2023-05-10T15:22:08.247Z,10.18
2023-05-10T15:24:37.158Z,10.82
2023-05-10T15:27:08.140Z,8.80
2023-05-10T15:29:37.394Z,6.30
2023-05-10T15:32:06.713Z,7.60
2023-05-10T15:34:37.113Z,7.45
2023-05-10T15:37:08.761Z,8.05
2023-05-10T15:39:38.137Z,9.63
2023-05-10T15:42:07.825Z,7.82
2023-05-10T15:44:39.690Z,7.45
2023-05-10T15:47:08.676Z,9.95
2023-05-10T15:49:38.123Z,6.10
2023-05-10T15:52:08.221Z,10.27
2023-05-10T15:54:38.571Z,14.13
2023-05-10T15:57:08.052Z,9.05
2023-05-10T15:59:36.996Z,10.20
2023-05-10T16:02:06.673Z,7.68
2023-05-10T16:04:37.332Z,6.88
2023-05-10T16:07:08.013Z,6.05
2023-05-10T16:09:37.016Z,7.20
2023-05-10T16:12:06.489Z,5.53
2023-05-10T16:14:35.750Z,4.97
2023-05-10T16:17:05.876Z,6.13
2023-05-10T16:19:37.792Z,7.78
2023-05-10T16:22:09.201Z,7.25
2023-05-10T16:24:38.899Z,8.15
2023-05-10T16:27:08.793Z,6.00
2023-05-10T16:29:39.534Z,6.45
2023-05-10T16:32:08.648Z,9.50
2023-05-10T16:34:37.710Z,8.43
2023-05-10T16:37:08.898Z,7.63
2023-05-10T16:39:39.877Z,10.70
2023-05-10T16:42:09.756Z,13.03
2023-05-10T16:44:39.428Z,10.70
2023-05-10T16:47:08.644Z,8.40
2023-05-10T16:49:38.076Z,8.77
2023-05-10T16:52:07.068Z,8.67
2023-05-10T16:54:40.347Z,8.33
2023-05-10T16:57:09.409Z,8.87
2023-05-10T16:59:38.579Z,8.57
2023-05-10T17:02:08.345Z,11.17
2023-05-10T17:04:38.337Z,11.33
2023-05-10T17:07:07.428Z,11.83
2023-05-10T17:09:36.625Z,7.57
2023-05-10T17:12:07.593Z,7.63
2023-05-10T17:14:42.191Z,7.53
2023-05-10T17:17:11.632Z,8.27
2023-05-10T17:19:40.824Z,10.03
2023-05-10T17:22:11.091Z,8.60
2023-05-10T17:24:44.158Z,8.10
2023-05-10T17:27:15.747Z,10.20
2023-05-10T17:29:45.454Z,8.80
2023-05-10T17:32:17.869Z,7.40
2023-05-10T17:34:47.305Z,7.83
2023-05-10T17:37:16.330Z,8.03
2023-05-10T17:39:48.572Z,10.43
2023-05-10T17:42:20.911Z,10.90
2023-05-10T17:44:51.137Z,9.63
2023-05-10T17:47:20.626Z,8.27
2023-05-10T17:49:54.689Z,10.17
2023-05-10T17:52:32.777Z,9.77
2023-05-10T17:55:06.608Z,11.37
2023-05-10T17:57:40.549Z,10.70
2023-05-10T18:00:17.212Z,8.47
2023-05-10T18:02:54.582Z,8.80
2023-05-10T18:05:24.501Z,8.53
2023-05-10T18:07:57.958Z,5.57
2023-05-10T18:10:26.860Z,6.10
2023-05-10T18:12:58.814Z,6.10
2023-05-10T18:15:34.099Z,4.70
2023-05-10T18:18:08.425Z,4.57
2023-05-10T18:20:39.149Z,4.50
2023-05-10T18:23:08.161Z,5.73
2023-05-10T18:25:46.619Z,5.97
2023-05-10T18:28:23.269Z,7.80
2023-05-10T18:30:55.176Z,5.77
2023-05-10T18:33:36.154Z,6.17
2023-05-10T18:36:18.953Z,8.27
2023-05-10T18:38:53.903Z,7.23
2023-05-10T18:41:23.050Z,6.33
2023-05-10T18:43:55.884Z,8.57
2023-05-10T18:46:30.603Z,9.43
2023-05-10T18:49:14.583Z,8.80
2023-05-10T18:51:51.732Z,8.47
2023-05-10T18:54:21.860Z,9.03
2023-05-10T18:57:00.358Z,9.47
2023-05-10T18:59:47.717Z,10.53
2023-05-10T19:02:16.545Z,9.17
2023-05-10T19:04:48.370Z,7.50
2023-05-10T19:07:20.338Z,8.10
2023-05-10T19:09:53.327Z,8.53
2023-05-10T19:12:22.612Z,7.90
2023-05-10T19:14:53.128Z,10.17
2023-05-10T19:17:29.306Z,13.50
2023-05-10T19:20:04.796Z,11.10
2023-05-10T19:22:47.157Z,12.77
2023-05-10T19:25:29.574Z,9.37
2023-05-10T19:28:19.382Z,12.17
2023-05-10T19:30:55.724Z,11.03
2023-05-10T19:33:25.202Z,9.10
2023-05-10T19:35:57.442Z,11.53
2023-05-10T19:38:31.406Z,9.40
2023-05-10T19:41:02.899Z,11.30
2023-05-10T19:43:37.855Z,8.33
2023-05-10T19:46:10.254Z,10.20
2023-05-10T19:48:47.862Z,11.30
2023-05-10T19:51:24.458Z,10.37
2023-05-10T19:53:53.703Z,9.40
2023-05-10T19:56:24.747Z,10.77
2023-05-10T19:58:56.208Z,9.30
2023-05-10T20:01:27.016Z,12.10
2023-05-10T20:03:57.473Z,10.37
2023-05-10T20:06:26.630Z,14.70
2023-05-10T20:08:56.184Z,10.93
2023-05-10T20:11:29.548Z,10.63
2023-05-10T20:13:58.699Z,10.20
2023-05-10T20:16:31.960Z,9.90
2023-05-10T20:19:05.339Z,11.23
2023-05-10T20:21:34.694Z,11.87
2023-05-10T20:24:05.887Z,11.00
2023-05-10T20:26:36.808Z,10.33
2023-05-10T20:29:06.573Z,11.77
2023-05-10T20:31:38.837Z,11.20
2023-05-10T20:34:07.570Z,10.87
2023-05-10T20:36:36.789Z,11.30
2023-05-10T20:39:06.537Z,10.70
2023-05-10T20:41:35.965Z,12.80
2023-05-10T20:44:06.119Z,10.67
2023-05-10T20:46:36.464Z,13.20
2023-05-10T20:49:06.922Z,13.17
2023-05-10T20:51:36.820Z,12.03
2023-05-10T20:54:06.311Z,12.53
2023-05-10T20:56:35.363Z,11.63
2023-05-10T20:59:04.188Z,12.67
2023-05-10T21:01:33.822Z,14.17
2023-05-10T21:04:04.480Z,15.20
2023-05-10T21:06:37.871Z,13.03
2023-05-10T21:09:07.537Z,14.33
2023-05-10T21:11:38.660Z,13.80
2023-05-10T21:14:10.171Z,12.60
2023-05-10T21:16:40.606Z,14.23
2023-05-10T21:19:11.848Z,15.37
2023-05-10T21:21:41.069Z,14.30
2023-05-10T21:24:10.191Z,16.03
2023-05-10T21:26:40.371Z,17.20
2023-05-10T21:29:10.363Z,16.50
2023-05-10T21:31:39.884Z,17.47
2023-05-10T21:34:11.047Z,18.77
2023-05-10T21:36:40.680Z,17.63
2023-05-10T21:39:10.090Z,17.23
2023-05-10T21:41:39.283Z,18.93
2023-05-10T21:44:08.685Z,18.93
2023-05-10T21:46:40.949Z,20.67
2023-05-10T21:49:15.055Z,17.47
2023-05-10T21:51:44.231Z,16.57
2023-05-10T21:54:16.607Z,18.80
2023-05-10T21:56:45.793Z,17.07
2023-05-10T21:59:15.535Z,18.93
2023-05-10T22:01:44.272Z,23.23
2023-05-10T22:04:14.783Z,19.20
2023-05-10T22:06:44.358Z,20.87
2023-05-10T22:09:13.446Z,20.53
2023-05-10T22:11:42.327Z,19.13
2023-05-10T22:14:13.594Z,18.60
2023-05-10T22:16:42.382Z,22.30
2023-05-10T22:19:11.523Z,20.80
2023-05-10T22:21:41.533Z,22.57
2023-05-10T22:24:10.538Z,21.17
2023-05-10T22:26:41.266Z,21.23
2023-05-10T22:29:10.502Z,21.67
2023-05-10T22:31:39.241Z,24.27
2023-05-10T22:34:08.000Z,28.10
2023-05-10T22:36:36.573Z,29.20
2023-05-10T22:39:06.459Z,28.20
2023-05-10T22:41:35.320Z,25.33
2023-05-10T22:44:05.172Z,25.23
2023-05-10T22:46:36.588Z,25.97
2023-05-10T22:49:05.638Z,27.20
2023-05-10T22:51:34.396Z,26.60
2023-05-10T22:54:03.207Z,25.93
2023-05-10T22:56:33.619Z,25.60
2023-05-10T22:59:02.537Z,24.87
2023-05-10T23:01:31.205Z,28.03
2023-05-10T23:04:01.129Z,27.53
2023-05-10T23:06:29.820Z,28.93
2023-05-10T23:08:58.333Z,28.93
2023-05-10T23:11:27.174Z,29.00
2023-05-10T23:13:57.152Z,29.57
2023-05-10T23:16:25.888Z,29.57
2023-05-10T23:18:56.513Z,31.50
2023-05-10T23:21:25.390Z,31.57
2023-05-10T23:23:54.901Z,32.80
2023-05-10T23:26:23.456Z,31.40
2023-05-10T23:28:52.310Z,33.37
2023-05-10T23:31:22.350Z,38.50
2023-05-10T23:33:50.829Z,35.93
2023-05-10T23:36:19.454Z,35.43
2023-05-10T23:38:48.590Z,36.30
2023-05-10T23:41:17.050Z,36.17
2023-05-10T23:43:45.713Z,36.90
2023-05-10T23:46:14.348Z,36.77
2023-05-10T23:48:44.304Z,39.07
2023-05-10T23:51:12.697Z,40.67
2023-05-10T23:53:41.496Z,39.30
2023-05-10T23:56:10.057Z,46.27
2023-05-10T23:58:38.770Z,45.77
